Time;durP1;ratioP1;P1;durP2;ratioP2;P2;SDS_P1;SDS_P2;PMS_P1;PMS_P2;Temp;Humidity;BMP_temperature;BMP_pressure;BME280_temperature;BME280_humidity;BME280_pressure;Samples;Min_cycle;Max_cycle;Signal;HPM_P1;HPM_P2
2023/06/11 00:00:25;;;;;;;12.48;6.60;;;19.70;99.90;;;;;;5035853;28;20041;-70
2023/06/11 00:02:54;;;;;;;15.00;6.70;;;20.00;99.90;;;;;;5035359;28;20393;-70
2023/06/11 00:05:21;;;;;;;13.05;6.57;;;19.80;99.90;;;;;;5035035;28;20041;-70
2023/06/11 00:07:48;;;;;;;16.20;7.30;;;19.80;99.90;;;;;;5035649;28;20041;-70
2023/06/11 00:10:15;;;;;;;11.93;6.28;;;19.70;99.90;;;;;;5035668;28;20079;-70
2023/06/11 00:12:40;;;;;;;16.55;6.70;;;19.80;99.90;;;;;;5035499;28;20520;-70
2023/06/11 00:15:06;;;;;;;13.70;7.10;;;19.90;99.90;;;;;;5035328;28;20048;-69
2023/06/11 00:17:33;;;;;;;16.13;7.15;;;19.70;99.90;;;;;;5035650;28;20041;-69
2023/06/11 00:20:03;;;;;;;16.50;7.53;;;19.90;99.90;;;;;;5035599;28;20037;-69
2023/06/11 00:22:31;;;;;;;11.63;7.40;;;19.70;99.90;;;;;;5035660;28;20040;-69
2023/06/11 00:24:57;;;;;;;12.52;6.97;;;20.50;99.90;;;;;;5035296;28;20128;-70
2023/06/11 00:27:23;;;;;;;14.55;7.00;;;20.60;99.90;;;;;;5035624;28;20163;-70
2023/06/11 00:29:48;;;;;;;10.80;6.90;;;19.80;99.90;;;;;;5035042;28;20056;-70
2023/06/11 00:32:14;;;;;;;16.23;8.20;;;20.60;99.90;;;;;;5035710;28;20041;-70
2023/06/11 00:34:40;;;;;;;15.63;7.68;;;19.70;99.90;;;;;;5034997;28;20566;-69
2023/06/11 00:37:05;;;;;;;17.80;7.57;;;20.20;99.90;;;;;;5035610;28;20059;-70
2023/06/11 00:39:31;;;;;;;11.73;7.53;;;19.50;99.90;;;;;;5035268;28;20029;-70
2023/06/11 00:41:57;;;;;;;19.17;7.88;;;20.50;99.90;;;;;;5018665;28;20119;-70
2023/06/11 00:44:23;;;;;;;13.60;7.50;;;19.50;99.90;;;;;;5035401;28;20490;-70
2023/06/11 00:46:52;;;;;;;13.50;6.63;;;19.90;99.90;;;;;;5034672;28;20052;-70
2023/06/11 00:49:18;;;;;;;13.45;7.22;;;19.60;99.90;;;;;;5034986;28;20052;-70
2023/06/11 00:51:45;;;;;;;15.23;7.65;;;19.80;99.90;;;;;;5034728;28;20029;-70
2023/06/11 00:54:13;;;;;;;12.90;6.70;;;20.20;99.90;;;;;;5035260;28;20436;-70
2023/06/11 00:56:43;;;;;;;15.25;8.18;;;19.40;99.90;;;;;;5034434;28;20040;-69
2023/06/11 00:59:10;;;;;;;13.20;7.63;;;20.30;99.90;;;;;;5017982;28;20424;-70
2023/06/11 01:02:12;;;;;;;12.80;6.53;;;20.40;99.90;;;;;;5035143;28;20045;-70
2023/06/11 01:04:41;;;;;;;12.88;7.40;;;19.50;99.90;;;;;;5028774;28;20081;-68
2023/06/11 01:07:08;;;;;;;11.98;7.60;;;19.60;99.90;;;;;;5034824;28;20037;-70
2023/06/11 01:09:34;;;;;;;15.45;7.82;;;19.40;99.90;;;;;;5052270;28;20041;-70
2023/06/11 01:12:02;;;;;;;14.38;7.15;;;20.30;99.90;;;;;;5034646;28;20037;-69
2023/06/11 01:14:28;;;;;;;11.57;7.68;;;19.30;99.90;;;;;;5017205;28;20128;-70
2023/06/11 01:17:04;;;;;;;13.07;7.80;;;18.70;99.90;;;;;;5032945;28;20490;-70
2023/06/11 01:19:45;;;;;;;10.88;7.18;;;19.40;99.90;;;;;;5034287;28;20053;-69
2023/06/11 01:22:19;;;;;;;11.18;7.25;;;19.40;99.90;;;;;;5052372;28;20051;-70
2023/06/11 01:25:10;;;;;;;13.00;7.55;;;20.00;99.90;;;;;;5033916;28;20090;-70
2023/06/11 01:28:05;;;;;;;11.05;7.00;;;19.30;99.90;;;;;;5017825;28;20442;-69
2023/06/11 01:30:35;;;;;;;13.40;7.15;;;19.30;99.90;;;;;;5034325;28;20041;-70
2023/06/11 01:33:02;;;;;;;11.88;7.60;;;19.50;99.90;;;;;;5052109;28;20055;-70
2023/06/11 01:35:28;;;;;;;10.85;7.72;;;19.40;99.90;;;;;;5017417;28;20037;-70
2023/06/11 01:37:57;;;;;;;11.48;7.90;;;19.10;99.90;;;;;;5034237;28;20039;-70
2023/06/11 01:40:24;;;;;;;12.77;7.78;;;19.50;99.90;;;;;;5034324;28;20433;-70
2023/06/11 01:42:50;;;;;;;12.00;7.40;;;19.20;99.90;;;;;;5034051;28;20045;-70
2023/06/11 01:45:18;;;;;;;11.82;7.82;;;19.40;99.90;;;;;;5033634;28;20063;-70
2023/06/11 01:47:45;;;;;;;11.20;7.55;;;20.20;99.90;;;;;;5034018;28;20354;-70
2023/06/11 01:50:15;;;;;;;13.25;7.85;;;20.00;99.90;;;;;;5034080;28;20048;-70
2023/06/11 01:52:41;;;;;;;9.98;7.90;;;19.20;99.90;;;;;;5033874;28;20045;-70
2023/06/11 01:55:08;;;;;;;9.90;6.68;;;20.30;99.90;;;;;;5033879;28;20045;-70
2023/06/11 01:57:34;;;;;;;9.63;6.63;;;18.90;99.90;;;;;;5035097;28;20044;-70
2023/06/11 02:00:00;;;;;;;10.90;6.93;;;19.90;99.90;;;;;;5033989;28;20137;-70
2023/06/11 02:02:31;;;;;;;10.23;7.93;;;19.30;99.90;;;;;;5034205;28;20504;-69
2023/06/11 02:04:57;;;;;;;10.25;6.82;;;19.80;99.90;;;;;;5033402;28;20535;-70
2023/06/11 02:07:22;;;;;;;11.70;7.80;;;19.80;99.90;;;;;;5033608;28;20049;-70
2023/06/11 02:09:48;;;;;;;9.07;7.38;;;19.00;99.90;;;;;;5033264;28;20040;-70
2023/06/11 02:12:14;;;;;;;11.73;6.63;;;19.10;99.90;;;;;;5033904;28;20040;-70
2023/06/11 02:14:39;;;;;;;12.38;6.93;;;19.50;99.90;;;;;;5016828;28;20072;-69
2023/06/11 02:17:05;;;;;;;11.55;7.35;;;19.00;99.90;;;;;;5016230;28;20071;-70
2023/06/11 02:19:30;;;;;;;11.73;7.03;;;19.10;99.90;;;;;;5033445;28;20053;-70
2023/06/11 02:21:56;;;;;;;13.85;7.85;;;20.10;99.90;;;;;;5033589;28;20480;-70
2023/06/11 02:24:22;;;;;;;8.45;7.22;;;19.30;99.90;;;;;;5051810;28;20048;-70
2023/06/11 02:26:47;;;;;;;8.98;8.02;;;18.90;99.90;;;;;;5037288;28;20048;-70
2023/06/11 02:29:13;;;;;;;10.43;8.30;;;19.20;99.90;;;;;;5055428;28;20137;-70
2023/06/11 02:31:39;;;;;;;9.73;8.25;;;19.00;99.90;;;;;;5055507;28;20400;-70
2023/06/11 02:34:05;;;;;;;7.90;7.07;;;19.80;99.90;;;;;;5021297;28;20037;-70
2023/06/11 02:36:30;;;;;;;10.95;7.15;;;19.20;99.90;;;;;;5037389;28;20045;-70
2023/06/11 02:38:56;;;;;;;11.30;7.72;;;19.70;99.90;;;;;;5037666;28;20052;-70
2023/06/11 02:41:21;;;;;;;9.27;7.13;;;19.20;99.90;;;;;;5037772;28;20044;-70
2023/06/11 02:43:47;;;;;;;10.35;7.72;;;19.20;99.90;;;;;;5037444;28;20041;-69
2023/06/11 02:46:13;;;;;;;13.40;7.72;;;18.80;99.90;;;;;;5020763;28;20098;-70
2023/06/11 02:48:38;;;;;;;10.25;8.43;;;18.90;99.90;;;;;;5037648;28;20041;-70
2023/06/11 02:51:04;;;;;;;11.90;7.63;;;18.90;99.90;;;;;;5037553;28;20041;-70
2023/06/11 02:53:29;;;;;;;10.75;6.78;;;19.10;99.90;;;;;;5037174;28;20049;-70
2023/06/11 02:55:55;;;;;;;10.15;7.47;;;19.00;99.90;;;;;;5036766;28;20037;-70
2023/06/11 02:58:20;;;;;;;12.02;8.00;;;18.70;99.90;;;;;;5036919;28;20040;-70
2023/06/11 03:00:46;;;;;;;12.98;8.45;;;19.90;99.90;;;;;;5036875;28;20037;-70
2023/06/11 03:03:12;;;;;;;10.38;8.48;;;18.90;99.90;;;;;;5037057;28;20431;-70
2023/06/11 03:05:38;;;;;;;12.70;8.88;;;19.30;99.90;;;;;;5036854;28;20049;-70
2023/06/11 03:08:04;;;;;;;11.38;8.63;;;18.90;99.90;;;;;;5036930;28;20473;-70
2023/06/11 03:10:29;;;;;;;9.20;7.95;;;18.90;99.90;;;;;;5036877;28;20045;-70
2023/06/11 03:12:55;;;;;;;10.48;9.35;;;18.70;99.90;;;;;;5054868;28;20037;-70
2023/06/11 03:15:21;;;;;;;18.73;7.78;;;18.90;99.90;;;;;;5019818;28;20076;-70
2023/06/11 03:17:46;;;;;;;9.45;7.35;;;19.00;99.90;;;;;;5054522;28;20048;-70
2023/06/11 03:20:12;;;;;;;10.85;8.25;;;19.30;99.90;;;;;;5054667;28;20064;-70
2023/06/11 03:22:38;;;;;;;8.77;7.90;;;18.40;99.90;;;;;;5054388;28;20106;-69
2023/06/11 03:25:04;;;;;;;9.85;8.43;;;19.20;99.90;;;;;;5036204;28;20511;-70
2023/06/11 03:27:29;;;;;;;15.95;10.23;;;18.10;99.90;;;;;;5054494;28;20106;-68
2023/06/11 03:29:55;;;;;;;12.25;9.25;;;19.60;99.90;;;;;;5036487;28;20489;-70
2023/06/11 03:32:21;;;;;;;10.50;8.95;;;18.60;99.90;;;;;;5036831;28;20037;-69
2023/06/11 03:34:46;;;;;;;13.07;8.52;;;18.60;99.90;;;;;;5036209;28;20090;-70
2023/06/11 03:37:12;;;;;;;13.82;8.80;;;18.60;99.90;;;;;;5035245;28;20120;-70
2023/06/11 03:39:37;;;;;;;11.90;8.70;;;18.60;99.90;;;;;;5019982;28;20086;-70
2023/06/11 03:42:03;;;;;;;14.00;8.00;;;18.70;99.90;;;;;;5036371;28;20044;-70
2023/06/11 03:44:29;;;;;;;10.38;8.63;;;18.40;99.90;;;;;;5036231;28;20542;-69
2023/06/11 03:46:55;;;;;;;10.60;8.48;;;18.60;99.90;;;;;;5036052;28;20493;-70
2023/06/11 03:49:20;;;;;;;10.65;8.48;;;18.80;99.90;;;;;;5021127;28;20135;-70
2023/06/11 03:51:46;;;;;;;10.80;8.57;;;18.50;99.90;;;;;;5037163;28;20037;-70
2023/06/11 03:54:11;;;;;;;16.80;9.55;;;18.60;99.90;;;;;;5036235;28;20556;-70
2023/06/11 03:56:37;;;;;;;16.25;9.82;;;18.60;99.90;;;;;;5035716;28;20043;-69
2023/06/11 03:59:03;;;;;;;11.45;8.73;;;18.50;99.90;;;;;;5035866;28;20072;-70
2023/06/11 04:01:29;;;;;;;11.32;8.15;;;18.90;99.90;;;;;;5036065;28;20045;-70
2023/06/11 04:03:55;;;;;;;10.00;9.00;;;18.50;99.90;;;;;;5035817;28;20048;-69
2023/06/11 04:06:20;;;;;;;10.32;9.30;;;18.50;99.90;;;;;;5035410;28;20043;-70
2023/06/11 04:08:46;;;;;;;10.48;8.63;;;18.50;99.90;;;;;;5018974;28;20390;-70
2023/06/11 04:11:12;;;;;;;9.55;8.43;;;18.70;99.90;;;;;;5036104;28;20492;-69
2023/06/11 04:13:37;;;;;;;11.60;9.55;;;18.50;99.90;;;;;;5019558;28;20044;-70
2023/06/11 04:16:03;;;;;;;9.02;8.10;;;18.60;99.90;;;;;;5035294;28;20047;-70
2023/06/11 04:18:28;;;;;;;11.00;9.55;;;18.70;99.90;;;;;;5035667;28;20416;-70
2023/06/11 04:20:54;;;;;;;14.65;9.48;;;18.80;99.90;;;;;;5035579;28;20512;-70
2023/06/11 04:23:20;;;;;;;14.02;9.23;;;18.70;99.90;;;;;;5035543;28;20106;-70
2023/06/11 04:25:48;;;;;;;12.27;9.13;;;18.70;99.90;;;;;;5035107;28;20033;-70
2023/06/11 04:28:16;;;;;;;11.18;8.65;;;18.60;99.90;;;;;;5035036;28;20411;-70
2023/06/11 04:30:41;;;;;;;10.95;9.35;;;18.80;99.90;;;;;;5018275;28;20056;-70
2023/06/11 04:33:07;;;;;;;10.27;9.20;;;18.80;99.90;;;;;;5052238;28;20048;-70
2023/06/11 04:35:34;;;;;;;10.13;7.78;;;18.70;99.90;;;;;;5034396;28;20037;-69
2023/06/11 04:38:03;;;;;;;11.45;9.25;;;18.80;99.90;;;;;;5034891;28;20056;-70
2023/06/11 04:40:28;;;;;;;9.98;8.77;;;18.70;99.90;;;;;;5034764;28;20040;-70
2023/06/11 04:42:54;;;;;;;10.30;8.27;;;18.70;99.90;;;;;;5035127;28;20045;-70
2023/06/11 04:45:20;;;;;;;9.88;8.70;;;18.90;99.90;;;;;;5051997;28;20122;-70
2023/06/11 04:47:46;;;;;;;11.60;8.63;;;19.00;99.90;;;;;;5034673;28;20037;-70
2023/06/11 04:50:12;;;;;;;10.60;9.52;;;18.80;99.90;;;;;;5018341;28;20089;-70
2023/06/11 04:52:38;;;;;;;11.82;8.88;;;19.20;99.90;;;;;;5017596;28;20048;-70
2023/06/11 04:55:05;;;;;;;13.38;9.45;;;19.10;99.90;;;;;;5034596;28;20408;-70
2023/06/11 04:57:34;;;;;;;8.52;7.72;;;19.10;99.90;;;;;;5034248;28;20051;-70
2023/06/11 05:00:01;;;;;;;10.18;9.20;;;19.70;99.90;;;;;;5034516;28;20099;-70
2023/06/11 05:02:27;;;;;;;13.35;9.75;;;19.40;99.90;;;;;;5034146;28;20091;-70
2023/06/11 05:04:57;;;;;;;10.98;9.55;;;19.50;99.90;;;;;;5033726;28;20044;-70
2023/06/11 05:07:23;;;;;;;10.38;9.27;;;19.40;99.90;;;;;;5034398;28;20045;-70
2023/06/11 05:09:48;;;;;;;11.25;9.07;;;20.10;99.90;;;;;;5034002;28;20106;-70
2023/06/11 05:12:14;;;;;;;10.68;8.98;;;19.40;99.90;;;;;;5034284;28;20109;-70
2023/06/11 05:14:40;;;;;;;11.50;8.90;;;19.60;99.90;;;;;;5033485;28;20101;-70
2023/06/11 05:17:05;;;;;;;11.98;9.45;;;19.60;99.90;;;;;;5033372;28;20025;-70
2023/06/11 05:19:31;;;;;;;10.48;9.00;;;19.50;99.90;;;;;;5033140;28;20037;-70
2023/06/11 05:21:56;;;;;;;14.10;9.00;;;19.90;99.90;;;;;;5033557;28;20068;-71
2023/06/11 05:24:28;;;;;;;12.30;8.88;;;20.10;99.90;;;;;;5033781;28;20109;-71
2023/06/11 05:26:55;;;;;;;12.38;8.88;;;20.20;99.90;;;;;;5016575;28;20055;-70
2023/06/11 05:29:21;;;;;;;10.43;8.63;;;20.60;99.90;;;;;;5031200;28;20029;-70
2023/06/11 05:31:47;;;;;;;12.02;8.93;;;20.30;99.90;;;;;;5033511;28;20033;-70
2023/06/11 05:34:13;;;;;;;11.95;9.00;;;20.30;99.90;;;;;;5033469;28;20128;-71
2023/06/11 05:36:39;;;;;;;9.77;8.85;;;20.40;99.90;;;;;;5033258;28;20167;-70
2023/06/11 05:39:04;;;;;;;9.80;8.90;;;20.20;99.90;;;;;;5033153;28;20086;-70
2023/06/11 05:41:30;;;;;;;10.55;9.52;;;20.50;99.90;;;;;;5032969;28;20048;-70
2023/06/11 05:43:56;;;;;;;11.48;9.63;;;21.60;99.90;;;;;;5034629;28;20051;-70
2023/06/11 05:46:24;;;;;;;11.00;9.20;;;20.50;99.90;;;;;;5033054;28;20455;-70
2023/06/11 05:48:49;;;;;;;10.98;9.90;;;20.70;99.90;;;;;;5032725;28;20052;-70
2023/06/11 05:51:15;;;;;;;11.07;9.88;;;20.80;99.90;;;;;;5032713;28;20028;-70
2023/06/11 05:53:40;;;;;;;12.05;10.05;;;20.60;99.90;;;;;;5033499;28;20484;-70
2023/06/11 05:56:06;;;;;;;12.18;9.00;;;21.30;99.90;;;;;;5033083;28;20041;-70
2023/06/11 05:58:33;;;;;;;9.65;8.60;;;20.90;99.90;;;;;;5033189;28;20461;-70
2023/06/11 06:01:03;;;;;;;10.77;8.93;;;20.80;99.90;;;;;;5032235;28;20500;-70
2023/06/11 06:03:33;;;;;;;9.55;8.55;;;20.80;99.90;;;;;;5033014;28;20045;-69
2023/06/11 06:06:01;;;;;;;13.27;9.23;;;21.20;99.90;;;;;;5033229;28;20099;-70
2023/06/11 06:08:28;;;;;;;9.27;8.40;;;21.20;99.90;;;;;;5028138;28;20036;-69
2023/06/11 06:10:54;;;;;;;10.43;8.93;;;21.50;99.90;;;;;;5030472;28;20038;-70
2023/06/11 06:13:21;;;;;;;9.20;8.40;;;21.30;99.90;;;;;;5031799;28;20032;-70
2023/06/11 06:15:46;;;;;;;10.55;8.95;;;21.40;99.90;;;;;;5029149;28;20442;-71
2023/06/11 06:18:12;;;;;;;11.10;8.77;;;21.50;99.90;;;;;;5012397;28;20090;-70
2023/06/11 06:20:37;;;;;;;14.10;9.75;;;21.90;99.90;;;;;;5014000;28;20044;-70
2023/06/11 06:23:04;;;;;;;12.48;8.93;;;22.10;99.90;;;;;;5027866;28;20076;-70
2023/06/11 06:25:31;;;;;;;9.07;8.27;;;22.40;99.90;;;;;;5031048;28;20052;-70
2023/06/11 06:27:57;;;;;;;9.35;8.38;;;21.80;99.90;;;;;;5028949;28;20033;-70
2023/06/11 06:30:22;;;;;;;11.63;9.48;;;22.30;99.90;;;;;;5030998;28;20635;-70
2023/06/11 06:32:48;;;;;;;12.40;9.98;;;22.60;99.90;;;;;;5029164;28;20033;-70
2023/06/11 06:35:14;;;;;;;13.77;9.10;;;22.60;99.90;;;;;;5031254;28;20029;-70
2023/06/11 06:37:40;;;;;;;10.40;9.18;;;22.20;99.90;;;;;;5013865;28;20374;-70
2023/06/11 06:40:06;;;;;;;12.50;9.20;;;22.30;99.90;;;;;;5031944;28;20069;-71
2023/06/11 06:42:32;;;;;;;9.73;8.73;;;22.40;99.90;;;;;;5031848;28;20040;-70
2023/06/11 06:44:57;;;;;;;9.73;8.45;;;22.50;99.90;;;;;;5029332;28;20176;-70
2023/06/11 06:47:23;;;;;;;9.68;8.65;;;23.20;99.90;;;;;;5030314;28;20040;-70
2023/06/11 06:49:49;;;;;;;13.35;8.73;;;22.50;99.90;;;;;;5030887;28;20519;-71
2023/06/11 06:52:14;;;;;;;10.25;8.00;;;22.70;99.90;;;;;;5030637;28;20064;-71
2023/06/11 06:54:47;;;;;;;12.18;8.43;;;23.00;99.90;;;;;;5012360;28;20041;-69
2023/06/11 06:57:13;;;;;;;10.30;9.00;;;22.90;99.90;;;;;;5027493;28;20041;-70
2023/06/11 06:59:39;;;;;;;11.52;9.23;;;22.90;99.90;;;;;;5032093;28;20090;-70
2023/06/11 07:02:05;;;;;;;11.50;9.25;;;22.80;99.90;;;;;;5028110;28;20033;-70
2023/06/11 07:04:31;;;;;;;10.10;8.77;;;23.10;99.90;;;;;;5031688;28;20041;-70
2023/06/11 07:06:57;;;;;;;9.07;8.18;;;23.00;99.90;;;;;;5049629;28;20036;-70
2023/06/11 07:09:22;;;;;;;11.80;9.05;;;23.10;99.90;;;;;;5026911;28;20120;-70
2023/06/11 07:11:48;;;;;;;10.65;8.90;;;23.50;99.90;;;;;;5032734;28;20048;-69
2023/06/11 07:14:17;;;;;;;9.43;8.43;;;23.60;99.90;;;;;;5019477;28;20041;-70
2023/06/11 07:16:42;;;;;;;9.10;8.05;;;23.60;99.90;;;;;;5016610;28;20043;-70
2023/06/11 07:19:08;;;;;;;11.35;8.73;;;23.70;99.90;;;;;;5032872;28;20128;-70
2023/06/11 07:21:35;;;;;;;10.82;8.20;;;23.90;99.90;;;;;;5033363;28;20045;-71
2023/06/11 07:24:04;;;;;;;9.63;8.00;;;23.80;99.90;;;;;;5033028;28;20041;-70
2023/06/11 07:26:33;;;;;;;12.27;8.30;;;23.90;99.90;;;;;;5016558;28;20037;-70
2023/06/11 07:28:59;;;;;;;9.70;8.65;;;23.80;99.90;;;;;;5016209;28;20044;-71
2023/06/11 07:31:26;;;;;;;10.88;8.93;;;24.10;99.90;;;;;;5036061;28;20087;-71
2023/06/11 07:33:52;;;;;;;10.13;8.55;;;24.00;99.90;;;;;;5036143;28;20049;-72
2023/06/11 07:36:18;;;;;;;9.23;8.18;;;24.20;99.90;;;;;;5036156;28;20492;-71
2023/06/11 07:38:44;;;;;;;12.13;8.43;;;24.40;99.90;;;;;;5035935;28;20420;-70
2023/06/11 07:41:10;;;;;;;11.23;8.52;;;24.20;99.90;;;;;;5019723;28;20064;-72
2023/06/11 07:43:36;;;;;;;9.85;7.90;;;24.60;99.90;;;;;;5019659;28;20110;-71
2023/06/11 07:46:03;;;;;;;10.50;8.00;;;24.50;99.90;;;;;;5053672;28;20550;-72
2023/06/11 07:48:32;;;;;;;9.88;8.00;;;;;;;;;;5035861;28;20072;-70
2023/06/11 07:51:01;;;;;;;10.40;7.85;;;;;;;;;;5035917;28;20123;-72
2023/06/11 07:53:27;;;;;;;9.77;8.20;;;24.70;99.90;;;;;;5035736;28;20041;-71
2023/06/11 07:55:56;;;;;;;9.45;8.45;;;24.80;99.90;;;;;;5053616;28;20039;-72
2023/06/11 07:58:23;;;;;;;8.88;7.95;;;24.90;99.90;;;;;;5035773;28;20119;-72
2023/06/11 08:00:48;;;;;;;9.55;8.52;;;25.10;99.90;;;;;;5030224;28;20769;-70
2023/06/11 08:03:14;;;;;;;9.85;8.40;;;25.10;99.90;;;;;;5029142;28;20049;-71
2023/06/11 08:05:39;;;;;;;9.98;8.57;;;25.10;99.90;;;;;;4997797;28;20045;-72
2023/06/11 08:08:06;;;;;;;9.48;8.50;;;25.20;99.90;;;;;;4998099;28;20042;-71
2023/06/11 08:10:32;;;;;;;9.93;8.80;;;25.20;99.90;;;;;;4999181;28;20498;-70
2023/06/11 08:12:58;;;;;;;8.65;7.75;;;25.30;99.90;;;;;;5015765;28;20117;-71
2023/06/11 08:15:24;;;;;;;11.98;8.18;;;25.60;99.90;;;;;;5015299;28;20457;-71
2023/06/11 08:17:50;;;;;;;8.73;7.95;;;25.50;99.90;;;;;;5015579;28;20128;-72
2023/06/11 08:20:16;;;;;;;11.68;8.52;;;25.60;99.90;;;;;;5014977;28;20116;-70
2023/06/11 08:22:42;;;;;;;11.77;7.60;;;25.60;99.90;;;;;;4998864;28;20386;-72
2023/06/11 08:25:09;;;;;;;12.55;9.10;;;25.90;99.90;;;;;;5029186;28;20500;-72
2023/06/11 08:27:35;;;;;;;8.82;7.93;;;25.80;99.90;;;;;;5040071;28;20680;-71
2023/06/11 08:30:02;;;;;;;10.68;7.85;;;25.90;99.90;;;;;;5022601;28;20041;-71
2023/06/11 08:32:27;;;;;;;11.77;7.65;;;25.80;99.90;;;;;;5019732;28;20501;-71
2023/06/11 08:34:53;;;;;;;9.57;8.10;;;26.00;99.90;;;;;;5014479;28;20081;-71
2023/06/11 08:37:18;;;;;;;9.25;8.13;;;26.40;99.90;;;;;;5015961;28;20524;-71
2023/06/11 08:39:44;;;;;;;9.30;7.85;;;25.90;99.90;;;;;;5030411;28;20045;-70
2023/06/11 08:42:10;;;;;;;13.70;8.07;;;25.90;99.90;;;;;;5023134;28;20072;-71
2023/06/11 08:44:36;;;;;;;9.77;7.97;;;26.00;99.90;;;;;;5021247;28;20081;-71
2023/06/11 08:47:03;;;;;;;8.18;7.22;;;26.10;99.90;;;;;;5023703;28;20534;-71
2023/06/11 08:49:30;;;;;;;9.70;7.43;;;26.30;99.90;;;;;;5024518;28;20048;-70
2023/06/11 08:52:01;;;;;;;10.27;7.53;;;26.50;99.90;;;;;;5022501;28;20472;-72
2023/06/11 08:54:27;;;;;;;8.68;7.28;;;26.50;99.90;;;;;;5026469;28;20390;-71
2023/06/11 08:56:53;;;;;;;9.95;7.65;;;26.40;99.90;;;;;;5016744;28;20099;-72
2023/06/11 08:59:19;;;;;;;10.50;7.63;;;26.70;99.90;;;;;;5026578;28;20041;-72
2023/06/11 09:01:50;;;;;;;10.02;7.43;;;26.60;99.90;;;;;;5028477;28;20071;-71
2023/06/11 09:04:16;;;;;;;11.07;8.80;;;26.80;99.90;;;;;;5005762;28;20500;-71
2023/06/11 09:06:50;;;;;;;10.10;7.72;;;26.50;99.90;;;;;;5026420;28;20075;-72
2023/06/11 09:09:16;;;;;;;11.15;8.25;;;26.90;99.90;;;;;;5021834;28;20084;-71
2023/06/11 09:11:41;;;;;;;10.18;8.30;;;26.70;99.90;;;;;;5021024;28;20340;-72
2023/06/11 09:14:07;;;;;;;9.13;7.72;;;26.90;99.90;;;;;;5006114;28;20543;-71
2023/06/11 09:16:46;;;;;;;9.15;8.25;;;27.00;99.90;;;;;;5017565;28;20041;-71
2023/06/11 09:19:15;;;;;;;8.55;7.53;;;27.00;99.90;;;;;;5022028;28;20072;-72
2023/06/11 09:21:52;;;;;;;13.93;8.10;;;26.90;99.90;;;;;;5020973;28;20504;-70
2023/06/11 09:24:19;;;;;;;7.57;6.93;;;27.40;99.90;;;;;;5019845;28;20049;-70
2023/06/11 09:26:53;;;;;;;8.45;7.47;;;27.00;99.90;;;;;;5027687;28;20123;-70
2023/06/11 09:29:18;;;;;;;10.40;7.25;;;27.40;99.90;;;;;;5033831;28;20036;-69
2023/06/11 09:31:44;;;;;;;8.48;7.70;;;27.30;99.90;;;;;;5017051;28;20033;-69
2023/06/11 09:34:12;;;;;;;10.82;7.05;;;27.70;99.90;;;;;;5033387;28;20580;-70
2023/06/11 09:36:38;;;;;;;7.93;7.13;;;27.60;99.90;;;;;;5051510;28;20224;-69
2023/06/11 09:39:04;;;;;;;9.95;6.88;;;27.70;99.90;;;;;;5017224;28;20037;-70
2023/06/11 09:41:30;;;;;;;7.47;6.80;;;28.10;99.90;;;;;;5034212;28;20124;-70
2023/06/11 09:43:56;;;;;;;8.15;7.05;;;28.10;99.90;;;;;;5034135;28;20041;-70
2023/06/11 09:46:23;;;;;;;8.07;7.07;;;28.20;99.90;;;;;;5033657;28;20139;-72
2023/06/11 09:48:49;;;;;;;7.55;6.85;;;28.00;99.90;;;;;;5032899;28;20052;-70
2023/06/11 09:51:21;;;;;;;6.53;5.93;;;28.40;99.90;;;;;;5033143;28;20447;-69
2023/06/11 09:53:50;;;;;;;9.20;7.15;;;28.30;99.90;;;;;;5027532;28;20029;-70
2023/06/11 09:56:16;;;;;;;10.60;6.75;;;28.20;99.90;;;;;;5031475;28;20049;-72
2023/06/11 09:58:42;;;;;;;9.90;6.82;;;28.50;99.90;;;;;;5030427;28;20232;-72
2023/06/11 10:01:08;;;;;;;7.50;6.38;;;28.70;99.90;;;;;;5017517;28;20472;-72
2023/06/11 10:03:33;;;;;;;7.30;6.47;;;28.50;99.90;;;;;;5034060;28;20157;-72
2023/06/11 10:06:00;;;;;;;7.07;6.25;;;28.80;99.90;;;;;;5033343;28;20119;-72
2023/06/11 10:08:31;;;;;;;7.35;6.65;;;29.00;99.90;;;;;;5017138;28;20070;-70
2023/06/11 10:11:02;;;;;;;7.07;6.43;;;28.90;99.90;;;;;;5034038;28;20397;-71
2023/06/11 10:13:29;;;;;;;7.47;6.70;;;28.90;99.90;;;;;;5034055;28;20037;-72
2023/06/11 10:15:57;;;;;;;7.35;6.65;;;28.80;99.90;;;;;;5016580;28;20037;-71
2023/06/11 10:18:26;;;;;;;7.75;6.43;;;29.10;99.90;;;;;;5016698;28;20553;-69
2023/06/11 10:20:59;;;;;;;8.45;6.43;;;28.90;99.90;;;;;;5033650;28;20127;-69
2023/06/11 10:23:40;;;;;;;7.40;6.07;;;29.20;99.90;;;;;;5033494;28;20045;-69
2023/06/11 10:26:07;;;;;;;9.95;6.53;;;29.00;99.90;;;;;;5032789;28;20044;-69
2023/06/11 10:28:48;;;;;;;6.15;5.53;;;29.10;99.90;;;;;;5033399;28;20049;-69
2023/06/11 10:31:35;;;;;;;6.93;6.22;;;29.30;99.90;;;;;;5033485;28;20492;-69
2023/06/11 10:34:04;;;;;;;9.25;5.97;;;29.60;99.90;;;;;;5033580;28;20308;-69
2023/06/11 10:36:35;;;;;;;6.95;6.00;;;29.40;99.30;;;;;;5033014;28;20041;-69
2023/06/11 10:39:21;;;;;;;7.07;6.38;;;29.50;99.90;;;;;;5016758;28;20037;-71
2023/06/11 10:41:47;;;;;;;6.60;5.30;;;29.70;99.60;;;;;;5033428;28;20044;-72
2023/06/11 10:44:14;;;;;;;6.15;5.53;;;29.60;98.90;;;;;;5033235;28;20516;-72
2023/06/11 10:46:49;;;;;;;6.43;5.82;;;29.70;99.10;;;;;;5035580;28;20568;-72
2023/06/11 10:49:15;;;;;;;6.22;5.55;;;30.40;99.50;;;;;;5054965;28;20060;-70
2023/06/11 10:51:41;;;;;;;6.70;6.03;;;29.80;99.00;;;;;;5036983;28;20041;-69
2023/06/11 10:54:07;;;;;;;7.03;5.82;;;29.80;98.70;;;;;;5037304;28;20044;-69
2023/06/11 10:56:37;;;;;;;9.80;5.72;;;30.30;98.80;;;;;;5037060;28;20033;-70
2023/06/11 10:59:09;;;;;;;6.10;5.50;;;30.00;98.70;;;;;;5020483;28;20072;-69
2023/06/11 11:01:35;;;;;;;7.40;5.15;;;30.10;98.80;;;;;;5037462;28;20049;-69
2023/06/11 11:04:02;;;;;;;6.93;5.32;;;30.00;97.80;;;;;;5037160;28;20489;-67
2023/06/11 11:06:28;;;;;;;10.25;5.35;;;30.10;98.20;;;;;;5036934;28;20482;-69
2023/06/11 11:08:59;;;;;;;7.60;5.22;;;30.10;98.20;;;;;;5036703;28;20087;-69
2023/06/11 11:11:26;;;;;;;5.90;5.13;;;30.10;97.90;;;;;;5037075;28;20559;-69
2023/06/11 11:13:53;;;;;;;5.38;4.88;;;30.00;97.60;;;;;;5020560;28;20044;-69
2023/06/11 11:16:19;;;;;;;6.43;4.85;;;30.10;97.80;;;;;;5036489;28;20116;-69
2023/06/11 11:18:47;;;;;;;6.72;5.07;;;30.40;97.80;;;;;;5036738;28;20045;-69
2023/06/11 11:21:13;;;;;;;5.05;4.55;;;30.50;97.80;;;;;;5055939;28;20080;-69
2023/06/11 11:23:39;;;;;;;5.70;5.10;;;30.70;98.00;;;;;;5037978;28;20037;-70
2023/06/11 11:26:04;;;;;;;6.72;5.28;;;30.40;97.70;;;;;;5037728;28;20405;-69
2023/06/11 11:28:34;;;;;;;5.40;4.90;;;30.40;97.50;;;;;;5036756;28;20028;-69
2023/06/11 11:31:00;;;;;;;6.13;5.53;;;30.60;97.70;;;;;;5054699;28;20041;-69
2023/06/11 11:33:27;;;;;;;5.80;5.20;;;30.60;97.40;;;;;;5036726;28;20064;-70
2023/06/11 11:35:54;;;;;;;7.45;5.00;;;30.80;97.50;;;;;;5054216;28;20412;-70
2023/06/11 11:38:20;;;;;;;7.20;4.88;;;30.80;97.50;;;;;;5019811;28;20071;-72
2023/06/11 11:40:52;;;;;;;5.65;5.00;;;31.10;97.00;;;;;;5020112;28;20045;-72
2023/06/11 11:43:18;;;;;;;5.68;4.95;;;31.00;97.40;;;;;;5036735;28;20056;-71
2023/06/11 11:45:48;;;;;;;6.78;5.03;;;30.70;96.90;;;;;;5036088;28;20068;-72
2023/06/11 11:48:15;;;;;;;7.45;4.75;;;31.20;96.50;;;;;;5036541;28;20143;-72
2023/06/11 11:50:41;;;;;;;5.95;5.15;;;31.30;96.30;;;;;;5036673;28;20493;-72
2023/06/11 11:53:13;;;;;;;5.90;4.85;;;30.90;96.20;;;;;;5036601;28;20044;-72
2023/06/11 11:55:43;;;;;;;8.27;4.80;;;31.20;96.40;;;;;;5036819;28;20049;-72
2023/06/11 11:58:15;;;;;;;6.50;5.15;;;31.30;96.00;;;;;;5036130;28;20408;-72
2023/06/11 12:00:58;;;;;;;5.10;4.60;;;31.30;95.60;;;;;;5036885;28;20067;-72
2023/06/11 12:03:26;;;;;;;5.78;4.75;;;30.80;94.90;;;;;;5019930;28;20048;-72
2023/06/11 12:06:07;;;;;;;7.45;4.95;;;31.10;95.60;;;;;;5036155;28;20128;-72
2023/06/11 12:08:33;;;;;;;5.88;4.63;;;31.20;95.30;;;;;;5035809;28;20048;-72
2023/06/11 12:11:01;;;;;;;5.18;4.60;;;31.10;95.30;;;;;;5036257;28;20048;-70
2023/06/11 12:13:27;;;;;;;5.35;4.82;;;31.30;95.00;;;;;;5053953;28;20582;-69
2023/06/11 12:15:53;;;;;;;6.78;4.60;;;30.90;95.00;;;;;;5019228;28;20041;-69
2023/06/11 12:18:18;;;;;;;6.40;4.75;;;31.20;94.90;;;;;;5035917;28;20037;-70
2023/06/11 12:20:44;;;;;;;7.57;4.93;;;31.30;94.90;;;;;;5036289;28;20087;-69
2023/06/11 12:23:10;;;;;;;14.02;6.35;;;31.30;94.50;;;;;;5053841;28;20041;-69
2023/06/11 12:25:36;;;;;;;4.72;4.32;;;31.80;95.20;;;;;;5035594;28;20055;-69
2023/06/11 12:28:02;;;;;;;5.65;4.70;;;31.80;94.70;;;;;;5036132;28;20044;-69
2023/06/11 12:30:32;;;;;;;7.05;4.30;;;31.50;94.50;;;;;;5035900;28;20123;-69
2023/06/11 12:32:58;;;;;;;5.15;4.65;;;31.80;94.70;;;;;;5036196;28;20067;-70
2023/06/11 12:35:24;;;;;;;6.88;4.47;;;31.90;94.40;;;;;;5019155;28;20033;-69
2023/06/11 12:37:50;;;;;;;8.23;5.18;;;31.50;94.10;;;;;;5036118;28;20098;-69
2023/06/11 12:40:16;;;;;;;6.97;4.72;;;31.30;94.40;;;;;;5036353;28;20040;-69